createdAt,value
2018-06-01T00:00:59.382Z,19.50
2018-06-01T00:03:27.555Z,19.40
2018-06-01T00:05:55.725Z,19.30
2018-06-01T00:08:23.985Z,19.20
2018-06-01T00:10:54.976Z,19.10
2018-06-01T00:13:23.134Z,19.10
2018-06-01T00:15:51.309Z,19.10
2018-06-01T00:18:19.463Z,19.10
2018-06-01T00:20:47.687Z,19.00
2018-06-01T00:23:16.609Z,19.00
2018-06-01T00:25:45.536Z,18.90
2018-06-01T00:28:13.691Z,18.90
2018-06-01T00:30:41.849Z,18.90
2018-06-01T00:33:10.035Z,18.90
2018-06-01T00:35:38.202Z,18.80
2018-06-01T00:38:07.188Z,18.80
2018-06-01T00:40:36.161Z,18.80
2018-06-01T00:43:05.068Z,18.70
2018-06-01T00:45:34.007Z,18.70
2018-06-01T00:48:02.171Z,18.70
2018-06-01T00:50:30.356Z,18.60
2018-06-01T00:52:58.522Z,18.60
2018-06-01T00:55:26.696Z,18.60
2018-06-01T00:57:55.310Z,18.60
2018-06-01T01:00:23.494Z,18.60
2018-06-01T01:02:51.649Z,18.60
2018-06-01T01:05:19.819Z,18.50
2018-06-01T01:07:47.966Z,18.50
2018-06-01T01:10:16.145Z,18.50
2018-06-01T01:12:44.302Z,18.50
2018-06-01T01:15:12.458Z,18.50
2018-06-01T01:17:40.593Z,18.50
2018-06-01T01:20:08.783Z,18.60
2018-06-01T01:22:36.937Z,18.50
2018-06-01T01:25:06.506Z,18.50
2018-06-01T01:27:34.683Z,18.40
2018-06-01T01:30:02.854Z,18.40
2018-06-01T01:32:31.013Z,18.50
2018-06-01T01:34:59.155Z,18.40
2018-06-01T01:37:32.592Z,18.30
2018-06-01T01:40:00.749Z,18.30
2018-06-01T01:42:28.912Z,18.20
2018-06-01T01:44:57.066Z,18.20
2018-06-01T01:47:26.005Z,18.20
2018-06-01T01:49:54.277Z,18.20
2018-06-01T01:52:22.441Z,18.10
2018-06-01T01:54:50.670Z,18.10
2018-06-01T01:57:19.602Z,18.10
2018-06-01T01:59:47.753Z,18.10
2018-06-01T02:02:15.923Z,18.10
2018-06-01T02:04:44.072Z,18.10
2018-06-01T02:07:13.000Z,18.10
2018-06-01T02:09:41.176Z,18.00
2018-06-01T02:12:09.347Z,18.00
2018-06-01T02:14:37.524Z,18.00
2018-06-01T02:17:05.718Z,18.10
2018-06-01T02:19:34.636Z,18.00
2018-06-01T02:22:02.841Z,18.00
2018-06-01T02:24:31.016Z,17.90
2018-06-01T02:26:59.220Z,17.90
2018-06-01T02:29:27.436Z,17.90
2018-06-01T02:31:55.695Z,17.90
2018-06-01T02:34:23.945Z,18.00
2018-06-01T02:36:52.178Z,17.90
2018-06-01T02:39:21.127Z,17.90
2018-06-01T02:41:49.275Z,17.80
2018-06-01T02:44:17.428Z,17.90
2018-06-01T02:46:45.568Z,17.90
2018-06-01T02:49:13.756Z,17.90
2018-06-01T02:51:42.662Z,17.90
2018-06-01T02:54:10.836Z,17.90
2018-06-01T02:56:38.990Z,17.90
2018-06-01T02:59:07.935Z,17.80
2018-06-01T03:01:36.094Z,17.80
2018-06-01T03:04:04.229Z,17.80
2018-06-01T03:09:39.184Z,17.80
2018-06-01T03:12:07.325Z,17.70
2018-06-01T03:14:35.513Z,17.70
2018-06-01T03:17:04.428Z,17.60
2018-06-01T03:19:32.554Z,17.60
2018-06-01T03:22:00.735Z,17.50
2018-06-01T03:24:28.873Z,17.50
2018-06-01T03:26:57.019Z,17.60
2018-06-01T03:29:25.181Z,17.60
2018-06-01T03:31:54.104Z,17.60
2018-06-01T03:34:22.263Z,17.60
2018-06-01T03:36:50.435Z,17.60
2018-06-01T03:39:18.571Z,17.70
2018-06-01T03:41:46.797Z,17.70
2018-06-01T03:44:14.940Z,17.80
2018-06-01T03:46:43.873Z,17.80
2018-06-01T03:49:12.058Z,17.70
2018-06-01T03:51:40.226Z,17.80
2018-06-01T03:54:08.370Z,17.80
2018-06-01T03:56:36.533Z,17.80
2018-06-01T03:59:04.783Z,17.80
2018-06-01T04:01:33.741Z,17.80
2018-06-01T04:04:01.903Z,17.80
2018-06-01T04:06:30.086Z,17.80
2018-06-01T04:08:58.225Z,17.80
2018-06-01T04:11:26.384Z,17.80
2018-06-01T04:13:54.565Z,17.80
2018-06-01T04:16:22.728Z,17.90
2018-06-01T04:18:50.902Z,17.90
2018-06-01T04:21:19.072Z,18.00
2018-06-01T04:23:47.251Z,18.00
2018-06-01T04:26:15.422Z,18.10
2018-06-01T04:28:43.585Z,18.10
2018-06-01T04:31:12.533Z,17.90
2018-06-01T04:33:40.682Z,17.90
2018-06-01T04:36:08.832Z,17.90
2018-06-01T04:38:36.971Z,18.00
2018-06-01T04:41:05.140Z,18.00
2018-06-01T04:43:33.312Z,18.10
2018-06-01T04:46:01.490Z,18.10
2018-06-01T04:48:29.640Z,18.10
2018-06-01T04:50:57.796Z,18.10
2018-06-01T04:53:25.971Z,18.20
2018-06-01T04:55:54.125Z,18.20
2018-06-01T04:58:22.277Z,18.30
2018-06-01T05:00:51.218Z,18.40
2018-06-01T05:03:19.370Z,18.40
2018-06-01T05:05:47.531Z,18.60
2018-06-01T05:08:15.725Z,18.70
2018-06-01T05:10:43.908Z,18.60
2018-06-01T05:13:12.076Z,18.80
2018-06-01T05:15:40.280Z,18.70
2018-06-01T05:18:08.465Z,18.70
2018-06-01T05:20:37.386Z,18.90
2018-06-01T05:23:06.141Z,18.90
2018-06-01T05:25:34.333Z,19.00
2018-06-01T05:28:03.241Z,19.30
2018-06-01T05:30:31.444Z,19.30
2018-06-01T05:32:59.589Z,19.80
2018-06-01T05:35:27.781Z,20.10
2018-06-01T05:37:55.921Z,20.50
2018-06-01T05:40:24.860Z,20.90
2018-06-01T05:42:53.026Z,20.90
2018-06-01T05:45:21.197Z,21.20
2018-06-01T05:47:49.344Z,21.40
2018-06-01T05:50:17.538Z,21.60
2018-06-01T05:52:45.683Z,21.90
2018-06-01T05:55:14.050Z,22.00
2018-06-01T05:57:42.217Z,22.00
2018-06-01T06:00:10.440Z,22.00
2018-06-01T06:02:38.611Z,22.00
2018-06-01T06:05:06.773Z,22.00
2018-06-01T06:07:34.908Z,22.00
2018-06-01T06:10:03.840Z,21.80
2018-06-01T06:12:31.991Z,21.80
2018-06-01T06:15:00.156Z,21.80
2018-06-01T06:17:28.302Z,22.00
2018-06-01T06:19:56.494Z,22.10
2018-06-01T06:22:25.385Z,22.20
2018-06-01T06:24:54.313Z,22.40
2018-06-01T06:27:22.481Z,22.40
2018-06-01T06:29:50.640Z,22.50
2018-06-01T06:32:18.805Z,22.80
2018-06-01T06:34:46.967Z,23.10
2018-06-01T06:37:15.149Z,22.90
2018-06-01T06:39:43.307Z,22.80
2018-06-01T06:42:12.333Z,22.60
2018-06-01T06:44:40.475Z,22.60
2018-06-01T06:47:08.700Z,22.70
2018-06-01T06:49:36.912Z,22.60
2018-06-01T06:52:05.836Z,22.30
2018-06-01T06:54:33.981Z,22.30
2018-06-01T06:57:02.900Z,22.40
2018-06-01T06:59:31.910Z,22.30
2018-06-01T07:02:00.297Z,22.30
2018-06-01T07:04:29.216Z,22.30
2018-06-01T07:06:57.386Z,22.30
2018-06-01T07:09:25.564Z,22.20
2018-06-01T07:11:54.545Z,22.40
2018-06-01T07:14:23.363Z,22.30
2018-06-01T07:16:52.301Z,22.60
2018-06-01T07:19:20.469Z,22.50
2018-06-01T07:21:48.629Z,22.70
2018-06-01T07:24:16.788Z,22.70
2018-06-01T07:26:44.972Z,22.80
2018-06-01T07:29:13.138Z,22.80
2018-06-01T07:31:41.372Z,22.80
2018-06-01T07:34:09.515Z,22.80
2018-06-01T07:36:37.771Z,23.00
2018-06-01T07:39:05.917Z,23.00
2018-06-01T07:41:34.859Z,23.10
2018-06-01T07:44:03.022Z,23.10
2018-06-01T07:46:31.982Z,23.40
2018-06-01T07:49:00.176Z,23.40
2018-06-01T07:51:28.357Z,23.50
2018-06-01T07:53:56.524Z,23.50
2018-06-01T07:56:24.681Z,23.40
2018-06-01T07:58:52.820Z,23.50
2018-06-01T08:01:21.738Z,23.40
2018-06-01T08:03:49.885Z,23.40
2018-06-01T08:06:18.831Z,23.80
2018-06-01T08:08:46.987Z,23.80
2018-06-01T08:11:15.138Z,23.80
2018-06-01T08:13:43.321Z,24.00
2018-06-01T08:16:11.469Z,24.20
2018-06-01T08:18:41.114Z,24.50
2018-06-01T08:21:09.290Z,24.40
2018-06-01T08:23:38.219Z,24.50
2018-06-01T08:26:06.475Z,24.60
2018-06-01T08:28:34.754Z,24.70
2018-06-01T08:31:02.921Z,24.90
2018-06-01T08:33:31.082Z,25.10
2018-06-01T08:35:59.283Z,25.30
2018-06-01T08:38:27.467Z,25.40
2018-06-01T08:40:55.700Z,25.50
2018-06-01T08:43:23.834Z,25.50
2018-06-01T08:45:52.740Z,25.60
2018-06-01T08:48:20.919Z,25.60
2018-06-01T08:50:49.160Z,25.60
2018-06-01T08:53:18.130Z,25.40
2018-06-01T08:55:46.277Z,25.40
2018-06-01T08:58:14.450Z,25.50
2018-06-01T09:00:42.601Z,25.70
2018-06-01T09:03:10.776Z,26.00
2018-06-01T09:05:39.052Z,26.20
2018-06-01T09:08:07.284Z,26.20
2018-06-01T09:10:35.523Z,26.30
2018-06-01T09:13:03.675Z,26.20
2018-06-01T09:15:31.863Z,26.20
2018-06-01T09:18:00.023Z,26.40
2018-06-01T09:20:28.191Z,26.30
2018-06-01T09:22:56.354Z,26.40
2018-06-01T09:25:24.521Z,26.60
2018-06-01T09:27:53.493Z,26.70
2018-06-01T09:30:22.426Z,26.70
2018-06-01T09:32:50.607Z,26.60
2018-06-01T09:35:19.696Z,26.90
2018-06-01T09:37:47.892Z,26.80
2018-06-01T09:46:56.584Z,26.70
2018-06-01T09:49:24.819Z,26.70
2018-06-01T09:51:53.007Z,26.70
2018-06-01T09:57:35.207Z,27.00
2018-06-01T10:00:03.419Z,27.20
2018-06-01T10:02:31.583Z,26.90
2018-06-01T10:05:00.308Z,27.00
2018-06-01T10:07:28.453Z,27.20
2018-06-01T10:10:02.364Z,27.20
2018-06-01T10:12:30.583Z,27.30
2018-06-01T10:14:58.741Z,27.30
2018-06-01T10:17:26.887Z,27.30
2018-06-01T10:19:55.870Z,27.30
2018-06-01T10:22:24.095Z,27.30
2018-06-01T10:24:52.245Z,27.40
2018-06-01T10:27:20.390Z,27.60
2018-06-01T10:29:48.545Z,27.60
2018-06-01T10:32:16.731Z,27.70
2018-06-01T10:34:44.964Z,27.80
2018-06-01T10:37:13.146Z,27.90
2018-06-01T10:39:41.315Z,27.70
2018-06-01T10:42:10.224Z,27.80
2018-06-01T10:44:38.399Z,27.80
2018-06-01T10:47:06.705Z,28.00
2018-06-01T10:49:35.634Z,28.00
2018-06-01T10:52:03.909Z,28.00
2018-06-01T10:54:32.062Z,28.10
2018-06-01T10:57:01.015Z,28.40
2018-06-01T10:59:29.268Z,28.40
2018-06-01T11:01:57.470Z,28.50
2018-06-01T11:04:25.666Z,28.60
2018-06-01T11:06:53.831Z,28.60
2018-06-01T11:09:22.759Z,28.70
2018-06-01T11:11:51.069Z,28.70
2018-06-01T11:14:19.218Z,28.70
2018-06-01T11:16:47.399Z,28.70
2018-06-01T11:19:15.558Z,28.70
2018-06-01T11:21:43.717Z,28.70
2018-06-01T11:24:11.878Z,28.70
2018-06-01T11:26:40.046Z,28.80
2018-06-01T11:29:08.222Z,28.80
2018-06-01T11:31:36.567Z,28.80
2018-06-01T11:34:05.208Z,28.90
2018-06-01T11:36:33.375Z,28.90
2018-06-01T11:39:01.530Z,28.80
2018-06-01T11:41:29.704Z,28.80
2018-06-01T11:43:58.608Z,28.80
2018-06-01T11:46:26.762Z,28.90
2018-06-01T11:48:55.694Z,29.00
2018-06-01T11:51:24.069Z,29.00
2018-06-01T11:53:52.198Z,29.10
2018-06-01T11:56:21.121Z,29.20
2018-06-01T11:58:49.372Z,29.10
2018-06-01T12:01:17.702Z,29.30
2018-06-01T12:03:45.885Z,29.40
2018-06-01T12:06:14.052Z,29.50
2018-06-01T12:08:42.393Z,29.70
2018-06-01T12:11:10.614Z,29.70
2018-06-01T12:13:38.752Z,29.80
2018-06-01T12:16:06.941Z,30.00
2018-06-01T12:18:35.110Z,30.10
2018-06-01T12:21:03.342Z,30.10
2018-06-01T12:23:31.484Z,30.20
2018-06-01T12:25:59.758Z,30.10
2018-06-01T12:28:27.929Z,30.00
2018-06-01T12:30:56.125Z,29.90
2018-06-01T12:33:24.296Z,29.60
2018-06-01T12:35:53.216Z,29.50
2018-06-01T12:38:21.637Z,29.50
2018-06-01T12:40:49.796Z,29.50
2018-06-01T12:43:18.054Z,29.50
2018-06-01T12:45:46.224Z,29.80
2018-06-01T12:48:14.389Z,29.80
2018-06-01T12:50:43.325Z,30.00
2018-06-01T12:53:11.494Z,30.00
2018-06-01T12:55:39.744Z,30.10
2018-06-01T12:58:07.949Z,30.40
2018-06-01T13:00:36.200Z,30.50
2018-06-01T13:03:04.363Z,30.60
2018-06-01T13:05:32.616Z,30.60
2018-06-01T13:08:00.808Z,30.70
2018-06-01T13:10:29.050Z,30.70
2018-06-01T13:12:57.217Z,30.70
2018-06-01T13:15:25.397Z,30.60
2018-06-01T13:17:53.562Z,30.60
2018-06-01T13:20:21.763Z,30.50
2018-06-01T13:22:49.952Z,30.40
2018-06-01T13:25:18.150Z,30.40
2018-06-01T13:27:46.328Z,30.50
2018-06-01T13:30:14.485Z,30.50
2018-06-01T13:32:42.675Z,30.40
2018-06-01T13:35:10.834Z,30.30
2018-06-01T13:37:39.043Z,30.20
2018-06-01T13:40:08.129Z,30.00
2018-06-01T13:42:36.314Z,29.90
2018-06-01T13:45:05.271Z,29.60
2018-06-01T13:47:33.449Z,29.60
2018-06-01T13:50:01.637Z,29.70
2018-06-01T13:52:30.593Z,29.70
2018-06-01T13:54:59.038Z,29.70
2018-06-01T13:57:28.094Z,29.60
2018-06-01T13:59:56.255Z,29.50
2018-06-01T14:02:24.394Z,29.40
2018-06-01T14:04:52.539Z,29.60
2018-06-01T14:07:20.690Z,29.70
2018-06-01T14:09:48.855Z,29.90
2018-06-01T14:12:17.015Z,30.00
2018-06-01T14:14:45.188Z,29.90
2018-06-01T14:17:13.340Z,29.90
2018-06-01T14:19:41.584Z,29.90
2018-06-01T14:22:16.721Z,29.90
2018-06-01T14:24:44.885Z,29.90
2018-06-01T14:27:13.805Z,29.90
2018-06-01T14:29:41.939Z,29.80
2018-06-01T14:32:10.106Z,30.00
2018-06-01T14:34:38.449Z,30.00
2018-06-01T14:37:06.637Z,29.70
2018-06-01T14:39:34.826Z,29.50
2018-06-01T14:42:04.664Z,29.10
2018-06-01T14:44:32.891Z,29.10
2018-06-01T14:47:01.167Z,29.00
2018-06-01T14:49:29.279Z,28.90
2018-06-01T14:51:57.444Z,28.80
2018-06-01T14:54:25.736Z,28.70
2018-06-01T14:56:53.913Z,28.50
2018-06-01T14:59:22.070Z,28.40
2018-06-01T15:01:50.297Z,28.40
2018-06-01T15:04:18.456Z,28.50
2018-06-01T15:06:47.658Z,28.50
2018-06-01T15:09:15.822Z,28.40
2018-06-01T15:11:43.984Z,28.30
2018-06-01T15:14:12.135Z,28.30
2018-06-01T15:16:40.299Z,28.40
2018-06-01T15:19:09.223Z,28.30
2018-06-01T15:21:37.371Z,28.30
2018-06-01T15:24:05.538Z,28.30
2018-06-01T15:26:34.549Z,28.50
2018-06-01T15:29:02.716Z,28.40
2018-06-01T15:31:30.883Z,28.30
2018-06-01T15:34:00.043Z,28.30
2018-06-01T15:36:28.361Z,28.20
2018-06-01T15:38:56.516Z,28.30
2018-06-01T15:41:24.721Z,28.50
2018-06-01T15:43:52.861Z,28.60
2018-06-01T15:46:21.819Z,28.60
2018-06-01T15:48:49.970Z,28.60
2018-06-01T15:51:19.302Z,28.60
2018-06-01T15:53:47.711Z,28.70
2018-06-01T15:56:15.933Z,28.70
2018-06-01T15:58:44.131Z,28.70
2018-06-01T16:01:12.293Z,28.70
2018-06-01T16:03:40.534Z,28.50
2018-06-01T16:06:09.450Z,28.30
2018-06-01T16:08:37.657Z,28.30
2018-06-01T16:11:06.604Z,28.40
2018-06-01T16:13:34.878Z,28.40
2018-06-01T16:16:03.035Z,28.40
2018-06-01T16:18:31.216Z,28.40
2018-06-01T16:20:59.379Z,28.40
2018-06-01T16:23:27.519Z,28.50
2018-06-01T16:25:56.452Z,28.30
2018-06-01T16:28:24.631Z,28.30
2018-06-01T16:30:52.827Z,28.30
2018-06-01T16:33:22.024Z,28.30
2018-06-01T16:35:50.201Z,28.20
2018-06-01T16:38:18.341Z,28.10
2018-06-01T16:40:47.321Z,28.00
2018-06-01T16:43:15.656Z,28.00
2018-06-01T16:45:44.602Z,27.90
2018-06-01T16:48:12.806Z,27.90
2018-06-01T16:50:40.974Z,27.90
2018-06-01T16:53:09.212Z,27.80
2018-06-01T16:55:37.386Z,27.60
2018-06-01T16:58:05.540Z,27.30
2018-06-01T17:00:33.702Z,27.10
2018-06-01T17:03:02.609Z,27.00
2018-06-01T17:05:32.890Z,26.90
2018-06-01T17:08:01.137Z,26.90
2018-06-01T17:10:30.937Z,26.70
2018-06-01T17:12:59.101Z,26.70
2018-06-01T17:15:27.323Z,26.50
2018-06-01T17:18:01.632Z,26.40
2018-06-01T17:20:30.584Z,26.50
2018-06-01T17:22:59.788Z,26.50
2018-06-01T17:25:28.038Z,26.40
2018-06-01T17:27:56.244Z,26.40
2018-06-01T17:30:24.427Z,26.40
2018-06-01T17:32:52.597Z,26.30
2018-06-01T17:35:22.057Z,26.20
2018-06-01T17:37:50.389Z,26.10
2018-06-01T17:40:18.534Z,26.10
2018-06-01T17:42:47.493Z,26.00
2018-06-01T17:45:15.664Z,25.90
2018-06-01T17:47:43.837Z,25.90
2018-06-01T17:50:12.753Z,25.90
2018-06-01T17:52:41.250Z,25.90
2018-06-01T17:55:10.340Z,25.70
2018-06-01T17:57:39.322Z,25.50
2018-06-01T18:00:07.625Z,25.50
2018-06-01T18:02:36.826Z,25.40
2018-06-01T18:05:06.752Z,25.30
2018-06-01T18:07:35.113Z,25.40
2018-06-01T18:10:05.130Z,25.30
2018-06-01T18:12:34.424Z,25.10
2018-06-01T18:15:03.115Z,25.10
2018-06-01T18:17:31.675Z,25.20
2018-06-01T18:19:59.877Z,25.20
2018-06-01T18:22:31.155Z,25.10
2018-06-01T18:25:01.361Z,25.10
2018-06-01T18:27:31.172Z,25.10
2018-06-01T18:29:59.441Z,25.10
2018-06-01T18:32:27.609Z,25.10
2018-06-01T18:34:55.780Z,25.00
2018-06-01T18:37:24.888Z,25.10
2018-06-01T18:39:53.050Z,25.00
2018-06-01T18:42:21.413Z,25.00
2018-06-01T18:44:52.200Z,24.90
2018-06-01T18:47:21.288Z,24.90
2018-06-01T18:49:49.500Z,24.90
2018-06-01T18:52:17.751Z,24.70
2018-06-01T18:54:45.936Z,24.70
2018-06-01T18:57:14.114Z,24.60
2018-06-01T18:59:42.297Z,24.60
2018-06-01T19:02:10.481Z,24.50
2018-06-01T19:04:39.336Z,24.40
2018-06-01T19:07:07.569Z,24.40
2018-06-01T19:09:35.753Z,24.40
2018-06-01T19:12:03.917Z,24.50
2018-06-01T19:14:32.086Z,24.50
2018-06-01T19:17:01.037Z,24.50
2018-06-01T19:19:29.241Z,24.50
2018-06-01T19:21:57.448Z,24.50
2018-06-01T19:24:26.421Z,24.30
2018-06-01T19:26:55.354Z,23.80
2018-06-01T19:29:25.825Z,23.40
2018-06-01T19:31:53.986Z,23.40
2018-06-01T19:34:22.180Z,22.80
2018-06-01T19:36:51.065Z,22.50
2018-06-01T19:39:19.298Z,22.10
2018-06-01T19:41:47.518Z,21.80
2018-06-01T19:44:15.740Z,21.70
2018-06-01T19:46:44.671Z,21.50
2018-06-01T19:49:45.640Z,21.40
2018-06-01T19:52:13.974Z,21.30
2018-06-01T19:54:42.191Z,21.30
2018-06-01T19:57:10.388Z,21.10
2018-06-01T19:59:38.578Z,21.10
2018-06-01T20:02:06.773Z,21.10
2018-06-01T20:04:35.013Z,21.20
2018-06-01T20:07:03.839Z,21.10
2018-06-01T20:09:33.907Z,21.10
2018-06-01T20:12:15.602Z,21.00
2018-06-01T20:14:44.670Z,20.90
2018-06-01T20:17:14.941Z,21.10
2018-06-01T20:19:43.163Z,21.10
2018-06-01T20:22:12.123Z,20.90
2018-06-01T20:24:40.298Z,20.80
2018-06-01T20:27:08.469Z,20.80
2018-06-01T20:29:36.713Z,20.90
2018-06-01T20:32:04.950Z,20.90
2018-06-01T20:34:33.219Z,21.00
2018-06-01T20:37:01.381Z,21.00
2018-06-01T20:39:29.568Z,21.10
2018-06-01T20:41:58.509Z,21.10
2018-06-01T20:44:26.698Z,21.10
2018-06-01T20:46:54.877Z,21.10
2018-06-01T20:49:23.272Z,20.90
2018-06-01T20:51:51.587Z,21.10
2018-06-01T20:54:19.772Z,21.10
2018-06-01T20:56:48.019Z,21.10
2018-06-01T20:59:16.183Z,21.10
2018-06-01T21:01:45.111Z,21.20
2018-06-01T21:04:13.318Z,21.20
2018-06-01T21:06:41.611Z,21.30
2018-06-01T21:09:09.800Z,21.30
2018-06-01T21:11:38.765Z,21.10
2018-06-01T21:14:06.963Z,21.00
2018-06-01T21:16:36.142Z,21.00
2018-06-01T21:19:04.487Z,21.00
2018-06-01T21:21:32.664Z,21.10
2018-06-01T21:24:05.946Z,21.10
2018-06-01T21:26:40.881Z,21.20
2018-06-01T21:29:10.493Z,21.20
2018-06-01T21:31:38.674Z,21.10
2018-06-01T21:34:08.591Z,21.10
2018-06-01T21:36:36.976Z,21.10
2018-06-01T21:39:05.894Z,21.20
2018-06-01T21:41:34.178Z,21.10
2018-06-01T21:44:02.391Z,21.20
2018-06-01T21:46:30.559Z,21.30
2018-06-01T21:48:58.742Z,21.30
2018-06-01T21:51:26.949Z,21.20
2018-06-01T21:53:55.105Z,21.20
2018-06-01T21:56:23.290Z,21.30
2018-06-01T21:58:51.461Z,21.30
2018-06-01T22:01:19.653Z,21.30
2018-06-01T22:03:47.828Z,21.20
2018-06-01T22:06:16.004Z,21.30
2018-06-01T22:08:44.169Z,21.30
2018-06-01T22:11:15.135Z,21.40
2018-06-01T22:13:43.358Z,21.40
2018-06-01T22:16:11.606Z,21.40
2018-06-01T22:18:40.579Z,21.20
2018-06-01T22:21:08.859Z,21.10
2018-06-01T22:23:37.491Z,21.20
2018-06-01T22:26:05.659Z,21.20
2018-06-01T22:28:33.848Z,21.20
2018-06-01T22:31:02.224Z,21.30
2018-06-01T22:33:33.209Z,21.30
2018-06-01T22:36:01.396Z,21.30
2018-06-01T22:38:29.571Z,21.30
2018-06-01T22:40:57.725Z,21.30
2018-06-01T22:43:25.932Z,21.20
2018-06-01T22:45:54.106Z,21.20
2018-06-01T22:48:22.833Z,21.30
2018-06-01T22:50:52.055Z,21.30
2018-06-01T22:53:20.282Z,21.30
2018-06-01T22:55:48.551Z,21.30
2018-06-01T22:58:17.574Z,21.40
2018-06-01T23:00:46.009Z,21.40
2018-06-01T23:03:15.067Z,21.20
2018-06-01T23:05:43.225Z,21.20
2018-06-01T23:08:12.171Z,21.20
2018-06-01T23:10:40.328Z,21.20
2018-06-01T23:13:08.626Z,21.20
2018-06-01T23:15:36.799Z,21.20
2018-06-01T23:18:12.786Z,21.10
2018-06-01T23:20:41.038Z,21.10
2018-06-01T23:23:09.295Z,21.10
2018-06-01T23:25:46.187Z,21.10
2018-06-01T23:28:21.354Z,21.10
2018-06-01T23:30:49.553Z,20.90
2018-06-01T23:38:49.967Z,20.90
2018-06-01T23:41:20.302Z,20.90
2018-06-01T23:43:48.489Z,20.80
2018-06-01T23:46:18.059Z,20.80
2018-06-01T23:48:47.496Z,20.70
2018-06-01T23:51:16.422Z,20.50
2018-06-01T23:53:44.609Z,20.50
2018-06-01T23:56:13.709Z,20.60
2018-06-01T23:58:42.321Z,20.70
